createdAt,value
2023-04-21T00:09:35.364Z,20.75
2023-04-21T00:24:37.024Z,20.82
2023-04-21T00:39:38.730Z,20.85
2023-04-21T00:54:41.725Z,20.87
2023-04-21T01:09:43.418Z,20.90
2023-04-21T01:24:49.267Z,20.91
2023-04-21T01:39:54.530Z,20.93
2023-04-21T01:54:56.325Z,20.93
2023-04-21T02:09:58.059Z,20.96
2023-04-21T02:24:59.728Z,20.97
2023-04-21T02:40:01.528Z,20.97
2023-04-21T02:55:03.431Z,20.98
2023-04-21T03:10:06.639Z,20.99
2023-04-21T03:25:08.430Z,20.99
2023-04-21T03:40:11.086Z,21.00
2023-04-21T03:55:13.075Z,21.00
2023-04-21T04:10:14.724Z,21.03
2023-04-21T04:25:16.536Z,21.08
2023-04-21T04:40:18.412Z,21.11
2023-04-21T04:55:20.244Z,21.15
2023-04-21T05:10:21.947Z,21.15
2023-04-21T05:25:24.144Z,21.15
2023-04-21T05:40:25.912Z,21.15
2023-04-21T05:55:27.551Z,21.12
2023-04-21T06:10:29.282Z,21.08
2023-04-21T06:25:30.950Z,21.05
2023-04-21T06:40:32.625Z,21.02
2023-04-21T06:55:34.336Z,21.00
2023-04-21T07:10:36.036Z,20.97
2023-04-21T07:25:37.944Z,20.95
2023-04-21T07:40:39.658Z,20.93
2023-04-21T07:55:41.519Z,20.93
2023-04-21T08:10:43.225Z,20.98
2023-04-21T08:25:44.985Z,21.02
2023-04-21T08:40:46.863Z,21.07
2023-04-21T08:56:03.188Z,21.11
2023-04-21T09:11:15.460Z,21.16
2023-04-21T09:26:19.457Z,21.21
2023-04-21T09:41:21.757Z,21.24
2023-04-21T09:56:25.532Z,21.29
2023-04-21T10:11:27.363Z,21.33
2023-04-21T10:26:35.935Z,21.37
2023-04-21T10:41:38.406Z,21.40
2023-04-21T10:56:40.551Z,21.45
2023-04-21T11:11:42.254Z,21.50
2023-04-21T11:26:43.946Z,21.51
2023-04-21T11:41:50.058Z,21.58
2023-04-21T11:56:51.736Z,21.65
2023-04-21T12:11:55.505Z,21.72
2023-04-21T12:26:57.218Z,21.76
2023-04-21T12:41:59.336Z,21.80
2023-04-21T12:57:01.075Z,21.83
2023-04-21T13:12:03.391Z,21.87
2023-04-21T13:27:05.624Z,21.91
2023-04-21T13:42:07.643Z,21.95
2023-04-21T13:57:09.808Z,21.99
2023-04-21T14:12:11.598Z,22.01
2023-04-21T14:27:13.526Z,22.03
2023-04-21T14:42:15.599Z,22.05
2023-04-21T14:57:20.918Z,22.05
2023-04-21T15:12:22.954Z,22.07
2023-04-21T15:27:24.883Z,22.07
2023-04-21T15:42:26.914Z,22.07
2023-04-21T15:57:28.864Z,22.06
2023-04-21T16:12:30.900Z,22.06
2023-04-21T16:27:32.775Z,22.04
2023-04-21T16:42:34.750Z,22.04
2023-04-21T16:57:36.888Z,22.02
2023-04-21T17:12:39.138Z,22.02
2023-04-21T17:27:44.705Z,22.01
2023-04-21T17:42:46.555Z,22.01
2023-04-21T17:57:48.779Z,21.99
2023-04-21T18:12:51.058Z,21.95
2023-04-21T18:27:53.126Z,21.92
2023-04-21T18:42:54.828Z,21.90
2023-04-21T18:57:56.784Z,21.87
2023-04-21T19:12:58.489Z,21.87
2023-04-21T19:28:00.434Z,21.85
2023-04-21T19:43:02.186Z,21.82
2023-04-21T19:58:04.212Z,21.80
2023-04-21T20:13:06.001Z,21.76
2023-04-21T20:28:07.790Z,21.72
2023-04-21T20:43:09.518Z,21.71
2023-04-21T20:58:11.191Z,21.71
2023-04-21T21:13:12.902Z,21.68
2023-04-21T21:28:14.594Z,21.64
2023-04-21T21:43:16.283Z,21.61
2023-04-21T21:58:18.161Z,21.57
2023-04-21T22:13:19.939Z,21.55
2023-04-21T22:28:21.614Z,21.52
2023-04-21T22:43:23.481Z,21.45
2023-04-21T22:58:25.872Z,21.41
2023-04-21T23:13:27.544Z,21.37
2023-04-21T23:28:29.225Z,21.36
2023-04-21T23:43:30.932Z,21.32
2023-04-21T23:58:32.604Z,21.29
